Friend, Nebraska
Current Conditions -  °F | °C
As of 10:35 PM on Tuesday 21 Oct 2014 (Local Time) from KJYR Reporting Station
Clear Clear  
Wind Chill: 59°   Ceiling: Unl
Heat Index: 59°   Visibility: 10mi
Dew Point: 41°   Wind: 14mph
Humidity: 51%   Direction: 150°SSE
Pressure: 30.01"   Gusts: NA
Location:  40.65°N, 97.29°W
Report Text: KJYR 220335Z AUTO 15012KT 10SM CLR 15/05 A3001 RMK AO2
Loading
Personal Weather Stations






























Interactive Weather Map
Tropical Storm Tracking
New forecast layout! Learn more

10-Day Weather Forecast

Advertisements
Track Severe Weather on mobile